Time;durP1;ratioP1;P1;durP2;ratioP2;P2;SDS_P1;SDS_P2;PMS_P1;PMS_P2;Temp;Humidity;BMP_temperature;BMP_pressure;BME280_temperature;BME280_humidity;BME280_pressure;Samples;Min_cycle;Max_cycle;Signal;HPM_P1;HPM_P2
2022/07/03 00:02:09;;;;;;;26.17;4.20;;;;;;;;;;6076915;23;20908;-88
2022/07/03 00:04:36;;;;;;;24.97;5.00;;;;;;;;;;6100811;23;20924;-87
2022/07/03 00:07:04;;;;;;;25.23;4.17;;;;;;;;;;6101186;23;20410;-87
2022/07/03 00:09:32;;;;;;;23.20;4.37;;;;;;;;;;6100449;23;20410;-88
2022/07/03 00:12:00;;;;;;;23.80;4.73;;;;;;;;;;6077235;23;20406;-88
2022/07/03 00:14:31;;;;;;;34.97;5.03;;;;;;;;;;6100543;23;20777;-87
2022/07/03 00:17:00;;;;;;;15.90;4.93;;;;;;;;;;6101881;23;20742;-87
2022/07/03 00:19:28;;;;;;;44.40;5.40;;;;;;;;;;6077710;23;20402;-87
2022/07/03 00:21:57;;;;;;;20.87;4.60;;;;;;;;;;6101775;23;21064;-88
2022/07/03 00:24:25;;;;;;;28.93;6.13;;;;;;;;;;6126787;23;20406;-88
2022/07/03 00:26:53;;;;;;;18.33;3.93;;;;;;;;;;6101715;23;20406;-88
2022/07/03 00:29:21;;;;;;;29.83;5.40;;;;;;;;;;6077140;23;20457;-88
2022/07/03 00:31:49;;;;;;;38.17;5.23;;;;;;;;;;6077758;23;20450;-87
2022/07/03 00:34:18;;;;;;;31.70;5.30;;;;;;;;;;6100489;23;20405;-87
2022/07/03 00:36:47;;;;;;;25.10;4.10;;;;;;;;;;6125708;23;20402;-87
2022/07/03 00:39:15;;;;;;;38.67;5.87;;;;;;;;;;6100240;23;20410;-87
2022/07/03 01:01:55;;;;;;;;;;;;;;;;;;;;;
2022/07/03 01:11:51;;;;;;;38.03;6.17;;;;;;;;;;6039008;23;20422;-93
2022/07/03 01:18:22;;;;;;;;;;;;;;;;;;;;;
2022/07/03 01:28:19;;;;;;;;;;;;;;;;;;;;;
2022/07/03 01:31:23;;;;;;;29.63;6.17;;;;;;;;;;5983007;23;20482;-92
2022/07/03 01:37:32;;;;;;;33.90;5.47;;;;;;;;;;5910705;24;20411;-93
2022/07/03 01:40:53;;;;;;;29.27;5.90;;;;;;;;;;5899028;24;20460;-91
2022/07/03 01:50:33;;;;;;;27.00;5.40;;;;;;;;;;5941555;24;20499;-93
2022/07/03 02:00:24;;;;;;;21.57;4.07;;;;;;;;;;6054452;23;20482;-94
2022/07/03 02:30:23;;;;;;;;;;;;;;;;;;;;;
2022/07/03 02:37:13;;;;;;;;;;;;;;;;;;;;;
2022/07/03 02:44:07;;;;;;;24.73;4.53;;;;;;;;;;6157616;23;20380;-93
2022/07/03 02:56:51;;;;;;;18.50;4.30;;;;;;;;;;6151499;23;20401;-94
2022/07/03 03:10:26;;;;;;;18.60;5.70;;;;;;;;;;6068143;23;20471;-95
2022/07/03 03:13:10;;;;;;;18.80;5.37;;;;;;;;;;6067897;23;20973;-95
2022/07/03 03:15:59;;;;;;;20.70;6.90;;;;;;;;;;6045168;23;20520;-95
2022/07/03 03:19:01;;;;;;;18.47;5.33;;;;;;;;;;6043318;23;20414;-95
2022/07/03 03:24:50;;;;;;;33.77;6.20;;;;;;;;;;6067862;23;20756;-95
2022/07/03 03:30:52;;;;;;;28.30;5.57;;;;;;;;;;6067972;23;20447;-95
2022/07/03 03:36:42;;;;;;;18.33;5.20;;;;;;;;;;6128422;23;20369;-96
2022/07/03 03:42:54;;;;;;;22.90;5.50;;;;;;;;;;6128287;23;20381;-95
2022/07/03 03:45:38;;;;;;;19.00;5.50;;;;;;;;;;6107424;23;20418;-95
2022/07/03 03:48:06;;;;;;;19.97;5.13;;;;;;;;;;6102984;23;20444;-95
2022/07/03 03:53:59;;;;;;;20.17;5.10;;;;;;;;;;6128407;23;20369;-95
2022/07/03 03:59:48;;;;;;;22.93;4.37;;;;;;;;;;6128062;23;20377;-96
2022/07/03 04:02:16;;;;;;;16.40;5.00;;;;;;;;;;6117074;23;20512;-95
2022/07/03 04:05:03;;;;;;;24.03;5.80;;;;;;;;;;6126427;23;20416;-94
2022/07/03 04:14:21;;;;;;;25.47;5.97;;;;;;;;;;6127731;23;20437;-95
2022/07/03 04:16:48;;;;;;;21.33;4.57;;;;;;;;;;6126834;23;20497;-95
2022/07/03 04:23:00;;;;;;;27.00;6.20;;;;;;;;;;6096606;23;20769;-95
2022/07/03 04:29:01;;;;;;;21.03;4.40;;;;;;;;;;6096425;23;20375;-94
2022/07/03 04:35:01;;;;;;;34.93;5.43;;;;;;;;;;6096203;23;20390;-95
2022/07/03 04:37:37;;;;;;;24.20;4.27;;;;;;;;;;6071444;23;20929;-95
2022/07/03 04:40:05;;;;;;;26.70;5.37;;;;;;;;;;6073988;23;20421;-94
2022/07/03 04:42:38;;;;;;;18.43;4.63;;;;;;;;;;6076180;23;20418;-96
2022/07/03 04:55:48;;;;;;;22.13;4.63;;;;;;;;;;6098333;23;20442;-95
2022/07/03 04:58:23;;;;;;;17.53;4.10;;;;;;;;;;6128653;23;20417;-95
2022/07/03 05:00:51;;;;;;;21.13;3.70;;;;;;;;;;6155226;23;20413;-95
2022/07/03 05:03:20;;;;;;;19.70;4.20;;;;;;;;;;6104439;23;20409;-93
2022/07/03 05:06:06;;;;;;;22.37;4.80;;;;;;;;;;6104885;23;20897;-92
2022/07/03 05:11:55;;;;;;;19.70;4.50;;;;;;;;;;6129736;23;20436;-95
2022/07/03 05:14:22;;;;;;;36.40;4.80;;;;;;;;;;6104117;23;20413;-94
2022/07/03 05:20:24;;;;;;;22.37;4.40;;;;;;;;;;6129425;23;20703;-94
2022/07/03 05:23:08;;;;;;;20.77;3.40;;;;;;;;;;6081403;23;20437;-95
2022/07/03 05:35:28;;;;;;;17.57;4.47;;;;;;;;;;6129651;23;20373;-94
2022/07/03 05:38:00;;;;;;;16.23;4.20;;;;;;;;;;6080988;23;20405;-87
2022/07/03 05:40:30;;;;;;;24.97;3.97;;;;;;;;;;6101932;23;20857;-87
2022/07/03 05:42:58;;;;;;;14.37;3.13;;;;;;;;;;6127327;23;20402;-88
2022/07/03 05:45:26;;;;;;;25.97;5.47;;;;;;;;;;6103324;23;20406;-88
2022/07/03 05:47:54;;;;;;;18.30;4.70;;;;;;;;;;6102529;23;20476;-88
2022/07/03 05:50:22;;;;;;;26.43;5.03;;;;;;;;;;6102916;23;20493;-87
2022/07/03 05:52:49;;;;;;;18.20;3.43;;;;;;;;;;6127580;23;20406;-88
2022/07/03 05:55:16;;;;;;;23.93;4.63;;;;;;;;;;6126442;23;20398;-87
2022/07/03 05:57:43;;;;;;;19.20;4.70;;;;;;;;;;6078335;23;20402;-87
2022/07/03 06:00:11;;;;;;;21.43;4.80;;;;;;;;;;6078116;23;20433;-87
2022/07/03 06:02:38;;;;;;;27.80;4.57;;;;;;;;;;6124252;23;20433;-88
2022/07/03 06:05:06;;;;;;;22.33;4.20;;;;;;;;;;6106663;23;20401;-88
2022/07/03 06:07:33;;;;;;;20.30;4.40;;;;;;;;;;6107515;23;20430;-88
2022/07/03 06:10:01;;;;;;;19.90;4.23;;;;;;;;;;6106986;23;20455;-88
2022/07/03 06:12:28;;;;;;;18.93;4.40;;;;;;;;;;6106817;23;20532;-86
2022/07/03 06:14:56;;;;;;;18.47;4.97;;;;;;;;;;6131786;23;20455;-88
2022/07/03 06:17:28;;;;;;;18.07;5.00;;;;;;;;;;6109377;23;20401;-88
2022/07/03 06:19:55;;;;;;;21.77;5.00;;;;;;;;;;6107297;23;20401;-88
2022/07/03 06:22:23;;;;;;;33.20;5.00;;;;;;;;;;6157664;23;20404;-87
2022/07/03 06:24:52;;;;;;;22.50;4.20;;;;;;;;;;6130785;23;20401;-88
2022/07/03 06:27:21;;;;;;;26.53;3.70;;;;;;;;;;6131167;23;20405;-87
2022/07/03 06:29:52;;;;;;;15.70;3.80;;;;;;;;;;6130911;23;20903;-88
2022/07/03 06:32:20;;;;;;;25.60;5.00;;;;;;;;;;6107969;23;20444;-87
2022/07/03 06:34:48;;;;;;;26.33;4.03;;;;;;;;;;6107912;23;20411;-87
2022/07/03 06:37:15;;;;;;;22.37;4.50;;;;;;;;;;6130949;23;20401;-87
2022/07/03 06:39:43;;;;;;;18.73;4.20;;;;;;;;;;6108175;23;20412;-87
2022/07/03 06:42:11;;;;;;;16.13;3.93;;;;;;;;;;6132122;23;20979;-87
2022/07/03 06:44:39;;;;;;;18.90;4.30;;;;;;;;;;6131827;23;20386;-87
2022/07/03 06:47:06;;;;;;;14.90;3.80;;;;;;;;;;6108881;23;20401;-86
2022/07/03 06:49:34;;;;;;;17.07;4.03;;;;;;;;;;6106984;23;20409;-86
2022/07/03 06:52:02;;;;;;;22.83;4.60;;;;;;;;;;6107407;23;20447;-87
2022/07/03 06:54:29;;;;;;;29.23;4.70;;;;;;;;;;6107657;23;20397;-86
2022/07/03 06:56:57;;;;;;;17.10;3.97;;;;;;;;;;6107958;23;20395;-86
2022/07/03 06:59:24;;;;;;;23.33;4.20;;;;;;;;;;6156726;23;20401;-86
2022/07/03 07:01:51;;;;;;;20.70;4.63;;;;;;;;;;6107339;23;20433;-86
2022/07/03 07:04:19;;;;;;;23.40;4.10;;;;;;;;;;6109134;23;20392;-86
2022/07/03 07:06:47;;;;;;;21.33;4.47;;;;;;;;;;6107955;23;20408;-87
2022/07/03 07:09:16;;;;;;;18.73;4.90;;;;;;;;;;6132447;23;20404;-87
2022/07/03 07:11:44;;;;;;;30.53;5.50;;;;;;;;;;6107191;23;20445;-87
2022/07/03 07:14:12;;;;;;;23.83;4.50;;;;;;;;;;6109768;23;20401;-87
2022/07/03 07:16:40;;;;;;;15.27;3.80;;;;;;;;;;6107354;23;20409;-85
2022/07/03 07:19:10;;;;;;;17.60;4.17;;;;;;;;;;6131196;23;20714;-89
2022/07/03 07:21:41;;;;;;;15.67;4.00;;;;;;;;;;6156567;23;20892;-87
2022/07/03 07:24:09;;;;;;;21.30;3.87;;;;;;;;;;6131941;23;20401;-89
2022/07/03 07:26:37;;;;;;;22.83;4.80;;;;;;;;;;6106903;23;20397;-89
2022/07/03 07:29:05;;;;;;;13.57;3.40;;;;;;;;;;6131445;23;20409;-88
2022/07/03 07:35:25;;;;;;;11.43;4.10;;;;;;;;;;6159139;23;20429;-92
2022/07/03 07:47:55;;;;;;;14.63;4.30;;;;;;;;;;6158893;23;20909;-94
2022/07/03 07:50:45;;;;;;;27.70;5.30;;;;;;;;;;6109623;23;20932;-95
2022/07/03 08:31:16;;;;;;;11.03;3.83;;;;;;;;;;5926821;24;20737;-95
2022/07/03 08:34:21;;;;;;;20.00;4.43;;;;;;;;;;5905859;24;20412;-93
2022/07/03 08:40:40;;;;;;;18.57;3.80;;;;;;;;;;5929870;23;20489;-93
2022/07/03 08:46:31;;;;;;;25.70;4.57;;;;;;;;;;5931624;24;20374;-91
2022/07/03 08:49:19;;;;;;;18.60;4.57;;;;;;;;;;5954068;23;20866;-91
2022/07/03 08:51:58;;;;;;;19.17;4.03;;;;;;;;;;5955852;24;20451;-92
2022/07/03 10:00:37;;;;;;;18.10;3.70;;;;;;;;;;6156159;23;20443;-90
2022/07/03 10:03:20;;;;;;;24.77;4.40;;;;;;;;;;6131832;23;20401;-90
2022/07/03 10:05:48;;;;;;;24.50;4.67;;;;;;;;;;6134211;23;20405;-87
2022/07/03 10:08:20;;;;;;;15.80;3.50;;;;;;;;;;6156752;23;20400;-86
2022/07/03 10:10:48;;;;;;;20.50;3.87;;;;;;;;;;6131324;23;20405;-86
2022/07/03 10:13:15;;;;;;;18.23;4.20;;;;;;;;;;6131734;23;20429;-87
2022/07/03 10:15:43;;;;;;;17.50;4.13;;;;;;;;;;6108130;23;20401;-88
2022/07/03 10:18:12;;;;;;;12.23;4.20;;;;;;;;;;6131661;23;20479;-88
2022/07/03 10:20:43;;;;;;;17.83;4.20;;;;;;;;;;6107505;23;20389;-84
2022/07/03 10:23:11;;;;;;;16.50;5.03;;;;;;;;;;6130394;23;20448;-89
2022/07/03 10:25:42;;;;;;;22.97;6.07;;;;;;;;;;6108280;23;20385;-87
2022/07/03 10:28:14;;;;;;;23.20;6.77;;;;;;;;;;6132057;23;20767;-87
2022/07/03 10:30:43;;;;;;;20.83;4.53;;;;;;;;;;6132592;23;20389;-86
2022/07/03 10:33:25;;;;;;;21.10;3.83;;;;;;;;;;6132644;23;20425;-90
2022/07/03 10:36:14;;;;;;;16.47;3.57;;;;;;;;;;6159404;23;20436;-94
2022/07/03 10:39:11;;;;;;;17.40;3.93;;;;;;;;;;6045508;23;20396;-93
2022/07/03 10:45:06;;;;;;;20.47;3.70;;;;;;;;;;6024736;23;20386;-91
2022/07/03 10:47:50;;;;;;;14.73;3.23;;;;;;;;;;6021336;23;20852;-90
2022/07/03 10:50:42;;;;;;;23.43;4.70;;;;;;;;;;6020387;23;20396;-90
2022/07/03 10:53:28;;;;;;;17.97;4.70;;;;;;;;;;6001582;23;20420;-90
2022/07/03 10:56:12;;;;;;;14.60;3.77;;;;;;;;;;6001032;23;20392;-90
2022/07/03 10:58:58;;;;;;;16.27;3.33;;;;;;;;;;6021638;23;20867;-90
2022/07/03 11:01:44;;;;;;;22.53;3.93;;;;;;;;;;5992161;23;20430;-91
2022/07/03 11:04:49;;;;;;;15.50;3.47;;;;;;;;;;5992488;23;20880;-91
2022/07/03 11:07:41;;;;;;;24.80;3.80;;;;;;;;;;6012626;23;20384;-90
2022/07/03 11:10:15;;;;;;;14.83;3.30;;;;;;;;;;6013860;23;20416;-92
2022/07/03 11:12:59;;;;;;;17.10;4.33;;;;;;;;;;6011514;23;20944;-91
2022/07/03 11:15:33;;;;;;;20.00;4.10;;;;;;;;;;6011892;23;20702;-92
2022/07/03 11:18:18;;;;;;;17.50;3.37;;;;;;;;;;6128288;23;20413;-91
2022/07/03 11:20:52;;;;;;;16.90;2.87;;;;;;;;;;6104324;23;20402;-91
2022/07/03 11:23:25;;;;;;;22.50;3.70;;;;;;;;;;6128742;23;20400;-91
2022/07/03 11:25:56;;;;;;;16.47;3.80;;;;;;;;;;6129088;23;20409;-91
2022/07/03 11:28:47;;;;;;;16.07;4.30;;;;;;;;;;6078910;23;20719;-92
2022/07/03 11:31:16;;;;;;;25.23;9.07;;;;;;;;;;6103142;23;20398;-91
2022/07/03 11:34:00;;;;;;;24.53;5.67;;;;;;;;;;6080466;23;20485;-91
2022/07/03 11:36:31;;;;;;;13.33;3.00;;;;;;;;;;6078987;23;20476;-91
2022/07/03 11:38:59;;;;;;;12.63;3.50;;;;;;;;;;6080365;23;20410;-92
2022/07/03 11:41:27;;;;;;;17.37;3.03;;;;;;;;;;6103464;23;20755;-91
2022/07/03 11:43:55;;;;;;;13.87;3.83;;;;;;;;;;6127130;23;20410;-91
2022/07/03 11:46:34;;;;;;;14.27;3.40;;;;;;;;;;6080833;23;20940;-90
2022/07/03 11:49:05;;;;;;;19.37;5.37;;;;;;;;;;6079365;23;20496;-91
2022/07/03 11:51:41;;;;;;;22.80;8.63;;;;;;;;;;6128508;23;20480;-90
2022/07/03 11:54:10;;;;;;;14.97;6.53;;;;;;;;;;6079482;23;20793;-91
2022/07/03 11:56:51;;;;;;;15.83;5.30;;;;;;;;;;6081383;23;20496;-93
2022/07/03 11:59:22;;;;;;;23.63;11.43;;;;;;;;;;6082389;23;20410;-92
2022/07/03 12:01:50;;;;;;;15.93;4.57;;;;;;;;;;6080969;23;20406;-92
2022/07/03 12:04:24;;;;;;;21.90;8.23;;;;;;;;;;6106663;23;20402;-90
2022/07/03 12:07:12;;;;;;;14.90;5.50;;;;;;;;;;6110743;23;20473;-91
2022/07/03 12:09:39;;;;;;;14.47;5.27;;;;;;;;;;6109002;23;20745;-92
2022/07/03 12:12:18;;;;;;;12.53;3.20;;;;;;;;;;6111228;23;20421;-91
2022/07/03 12:15:01;;;;;;;16.90;4.20;;;;;;;;;;6127622;23;20409;-91
2022/07/03 12:18:01;;;;;;;12.53;3.30;;;;;;;;;;6119088;23;20393;-91
2022/07/03 12:21:20;;;;;;;13.17;4.57;;;;;;;;;;5970890;24;20402;-91
2022/07/03 12:23:49;;;;;;;17.10;4.60;;;;;;;;;;5960601;24;20405;-90
2022/07/03 12:26:34;;;;;;;14.03;4.07;;;;;;;;;;5983710;24;20802;-91
2022/07/03 12:29:03;;;;;;;11.03;4.70;;;;;;;;;;5962143;24;20485;-92
2022/07/03 12:31:30;;;;;;;12.10;3.27;;;;;;;;;;5982556;23;20410;-91
2022/07/03 12:33:58;;;;;;;13.07;3.27;;;;;;;;;;5960123;24;20453;-91
2022/07/03 12:36:35;;;;;;;13.90;3.43;;;;;;;;;;5985389;24;20375;-92
2022/07/03 12:39:03;;;;;;;17.33;3.63;;;;;;;;;;5983825;24;20433;-92
2022/07/03 12:41:37;;;;;;;12.27;3.20;;;;;;;;;;5984828;24;20489;-92
2022/07/03 12:44:20;;;;;;;11.93;3.00;;;;;;;;;;5968915;24;20482;-92
2022/07/03 12:46:51;;;;;;;11.20;3.57;;;;;;;;;;5989203;24;20500;-93
2022/07/03 12:49:23;;;;;;;8.87;3.00;;;;;;;;;;5985137;24;20414;-92
2022/07/03 12:51:57;;;;;;;10.70;2.50;;;;;;;;;;5983835;24;20421;-92
2022/07/03 12:54:30;;;;;;;8.83;2.90;;;;;;;;;;5960072;24;20463;-92
2022/07/03 13:00:05;;;;;;;11.10;3.00;;;;;;;;;;6044259;23;20435;-92
2022/07/03 13:02:35;;;;;;;11.70;3.57;;;;;;;;;;6067178;23;20503;-91
2022/07/03 13:07:55;;;;;;;15.70;2.70;;;;;;;;;;6067106;23;20410;-91
2022/07/03 13:10:29;;;;;;;13.10;3.10;;;;;;;;;;6043545;23;20419;-92
2022/07/03 13:13:03;;;;;;;9.63;2.20;;;;;;;;;;6043880;23;20506;-92
2022/07/03 13:15:32;;;;;;;10.13;1.73;;;;;;;;;;6045191;23;20391;-91
2022/07/03 13:18:00;;;;;;;8.07;2.30;;;;;;;;;;6121425;23;20412;-91
2022/07/03 13:20:31;;;;;;;8.67;2.30;;;;;;;;;;6110516;23;20396;-92
2022/07/03 13:23:01;;;;;;;13.93;2.20;;;;;;;;;;6109912;23;20377;-92
2022/07/03 13:25:29;;;;;;;9.13;2.37;;;;;;;;;;6109095;23;20909;-92
2022/07/03 13:28:03;;;;;;;11.90;2.60;;;;;;;;;;6132412;23;20424;-93
2022/07/03 13:30:42;;;;;;;10.60;2.40;;;;;;;;;;6108954;23;20412;-92
2022/07/03 13:33:10;;;;;;;9.20;3.13;;;;;;;;;;6133168;23;20416;-92
2022/07/03 13:35:44;;;;;;;7.80;2.73;;;;;;;;;;6109237;23;20374;-92
2022/07/03 13:38:11;;;;;;;7.07;2.40;;;;;;;;;;6108934;23;20414;-92
2022/07/03 13:40:39;;;;;;;7.33;2.27;;;;;;;;;;6133052;23;20922;-92
2022/07/03 13:43:09;;;;;;;11.00;2.30;;;;;;;;;;6132322;23;20401;-93
2022/07/03 13:45:49;;;;;;;15.10;2.87;;;;;;;;;;6108981;23;20496;-92
2022/07/03 13:48:35;;;;;;;20.77;3.10;;;;;;;;;;6158722;23;20374;-93
2022/07/03 13:51:03;;;;;;;14.90;3.47;;;;;;;;;;6133479;23;20389;-93
2022/07/03 13:53:31;;;;;;;18.67;3.70;;;;;;;;;;6108504;23;20443;-92
2022/07/03 13:56:04;;;;;;;14.03;4.20;;;;;;;;;;6108487;23;20463;-92
2022/07/03 13:58:37;;;;;;;17.27;3.50;;;;;;;;;;6108563;23;20416;-93
2022/07/03 14:01:04;;;;;;;14.80;2.80;;;;;;;;;;6108292;23;20528;-91
2022/07/03 14:03:38;;;;;;;18.77;3.63;;;;;;;;;;6108689;23;20393;-92
2022/07/03 14:06:06;;;;;;;21.00;3.47;;;;;;;;;;6108811;23;20409;-92
2022/07/03 14:08:34;;;;;;;15.70;2.97;;;;;;;;;;6108794;23;20409;-92
2022/07/03 14:11:01;;;;;;;17.83;3.70;;;;;;;;;;6108009;23;20439;-92
2022/07/03 14:13:32;;;;;;;12.50;3.13;;;;;;;;;;6108666;23;20507;-92
2022/07/03 14:16:03;;;;;;;13.87;3.50;;;;;;;;;;6108633;23;20408;-93
2022/07/03 14:18:32;;;;;;;12.60;3.33;;;;;;;;;;6157456;23;20366;-93
2022/07/03 14:21:08;;;;;;;12.80;3.30;;;;;;;;;;6108419;23;20409;-93
2022/07/03 14:23:35;;;;;;;11.43;3.03;;;;;;;;;;6131482;23;20418;-92
2022/07/03 14:26:07;;;;;;;14.73;3.07;;;;;;;;;;6108949;23;20378;-92
2022/07/03 14:33:51;;;;;;;16.23;3.10;;;;;;;;;;6132813;23;20446;-93
2022/07/03 14:36:25;;;;;;;19.57;2.97;;;;;;;;;;6108490;23;20493;-92
2022/07/03 14:39:21;;;;;;;15.80;3.10;;;;;;;;;;6116475;23;20451;-93
2022/07/03 14:41:55;;;;;;;11.20;2.50;;;;;;;;;;6108349;23;20887;-91
2022/07/03 14:44:25;;;;;;;11.47;2.90;;;;;;;;;;6107754;23;20408;-92
2022/07/03 14:47:17;;;;;;;19.03;3.53;;;;;;;;;;6108417;23;20950;-92
2022/07/03 14:49:52;;;;;;;16.70;2.50;;;;;;;;;;6132856;23;20374;-93
2022/07/03 14:52:28;;;;;;;17.80;3.17;;;;;;;;;;6109158;23;20779;-93
2022/07/03 14:54:57;;;;;;;15.13;3.73;;;;;;;;;;6108665;23;20432;-93
2022/07/03 14:57:53;;;;;;;11.37;2.53;;;;;;;;;;6108574;23;20401;-92
2022/07/03 15:00:22;;;;;;;18.00;3.20;;;;;;;;;;6127314;23;20449;-93
2022/07/03 15:05:45;;;;;;;14.37;2.60;;;;;;;;;;6158276;23;20455;-92
2022/07/03 15:08:44;;;;;;;15.53;2.80;;;;;;;;;;6132541;23;20490;-92
2022/07/03 15:14:21;;;;;;;19.57;3.53;;;;;;;;;;6157344;23;20977;-92
2022/07/03 15:16:54;;;;;;;11.67;2.73;;;;;;;;;;6108317;23;20393;-92
2022/07/03 15:19:36;;;;;;;17.10;3.60;;;;;;;;;;6132049;23;20739;-92
2022/07/03 15:22:12;;;;;;;12.40;2.77;;;;;;;;;;6108282;23;20464;-93
2022/07/03 15:24:46;;;;;;;12.17;2.60;;;;;;;;;;6107548;23;20401;-92
2022/07/03 15:27:15;;;;;;;12.63;2.53;;;;;;;;;;6107945;23;20772;-93
2022/07/03 15:29:43;;;;;;;14.80;3.63;;;;;;;;;;6107638;23;20744;-92
2022/07/03 15:32:17;;;;;;;15.73;2.63;;;;;;;;;;6131755;23;20915;-90
2022/07/03 15:34:47;;;;;;;7.30;2.17;;;;;;;;;;6108060;23;20548;-90
2022/07/03 15:37:15;;;;;;;11.93;2.50;;;;;;;;;;6107710;23;20471;-90
2022/07/03 15:39:53;;;;;;;10.93;2.33;;;;;;;;;;6155388;23;20405;-90
2022/07/03 15:42:24;;;;;;;8.13;2.13;;;;;;;;;;6132304;23;20416;-90
2022/07/03 15:44:55;;;;;;;14.33;2.13;;;;;;;;;;6156062;23;20381;-90
2022/07/03 15:50:39;;;;;;;11.60;2.93;;;;;;;;;;6157444;23;20459;-91
2022/07/03 15:53:10;;;;;;;8.30;1.87;;;;;;;;;;6131600;23;20495;-91
2022/07/03 15:55:40;;;;;;;6.50;1.77;;;;;;;;;;6107089;23;20459;-90
2022/07/03 15:58:07;;;;;;;8.40;1.90;;;;;;;;;;6108354;23;20860;-90
2022/07/03 16:00:35;;;;;;;10.20;1.70;;;;;;;;;;6131164;23;20421;-91
2022/07/03 16:03:12;;;;;;;5.60;1.80;;;;;;;;;;6131943;23;20887;-90
2022/07/03 16:05:42;;;;;;;8.93;1.80;;;;;;;;;;6107996;23;20376;-90
2022/07/03 16:08:10;;;;;;;8.40;2.17;;;;;;;;;;6107531;23;20409;-90
2022/07/03 16:10:44;;;;;;;7.27;1.80;;;;;;;;;;6107343;23;20405;-90
2022/07/03 16:13:14;;;;;;;7.47;1.87;;;;;;;;;;6107733;23;20431;-91
2022/07/03 16:15:49;;;;;;;18.03;3.33;;;;;;;;;;6131397;23;20519;-90
2022/07/03 16:18:17;;;;;;;11.33;2.00;;;;;;;;;;6108006;23;20891;-90
2022/07/03 16:20:45;;;;;;;8.33;2.10;;;;;;;;;;6110097;23;20409;-91
2022/07/03 16:23:52;;;;;;;10.00;2.40;;;;;;;;;;6134927;23;20455;-91
2022/07/03 16:26:20;;;;;;;6.70;2.20;;;;;;;;;;6010939;23;20401;-91
2022/07/03 16:28:50;;;;;;;9.80;2.00;;;;;;;;;;5990118;23;20417;-90
2022/07/03 16:31:24;;;;;;;14.53;2.10;;;;;;;;;;5989077;23;20453;-91
2022/07/03 16:34:07;;;;;;;10.80;2.57;;;;;;;;;;6011556;23;20441;-93
2022/07/03 16:36:34;;;;;;;8.80;1.70;;;;;;;;;;5989438;23;20413;-91
2022/07/03 16:39:08;;;;;;;11.50;2.50;;;;;;;;;;6011207;23;20402;-92
2022/07/03 16:41:39;;;;;;;13.57;2.77;;;;;;;;;;5987900;23;20405;-91
2022/07/03 16:44:13;;;;;;;10.30;2.63;;;;;;;;;;5988342;23;20446;-92
2022/07/03 16:46:43;;;;;;;8.87;2.07;;;;;;;;;;5988438;23;20413;-91
2022/07/03 16:49:13;;;;;;;11.00;2.30;;;;;;;;;;5988770;23;20410;-91
2022/07/03 16:51:47;;;;;;;12.50;2.23;;;;;;;;;;5990190;23;20413;-91
2022/07/03 16:54:15;;;;;;;18.87;2.40;;;;;;;;;;5989595;23;20523;-90
2022/07/03 16:56:49;;;;;;;16.93;2.70;;;;;;;;;;6012900;23;20803;-91
2022/07/03 16:59:26;;;;;;;8.80;1.80;;;;;;;;;;5990613;23;20449;-92
2022/07/03 17:02:04;;;;;;;8.50;1.80;;;;;;;;;;6043376;23;20416;-91
2022/07/03 17:04:37;;;;;;;14.40;3.27;;;;;;;;;;6141024;23;20381;-91
2022/07/03 17:07:12;;;;;;;12.30;2.07;;;;;;;;;;6112878;23;20416;-93
2022/07/03 17:09:42;;;;;;;14.13;2.47;;;;;;;;;;6134413;23;20915;-92
2022/07/03 17:12:19;;;;;;;10.17;2.07;;;;;;;;;;6109262;23;20408;-91
2022/07/03 17:14:53;;;;;;;8.07;1.97;;;;;;;;;;6133093;23;20440;-91
2022/07/03 17:17:20;;;;;;;11.53;2.57;;;;;;;;;;6109138;23;20463;-92
2022/07/03 17:20:18;;;;;;;12.63;3.37;;;;;;;;;;6109188;23;20467;-91
2022/07/03 17:22:47;;;;;;;7.73;2.60;;;;;;;;;;6090093;23;20483;-91
2022/07/03 17:25:24;;;;;;;11.90;2.20;;;;;;;;;;6135280;23;20369;-92
2022/07/03 17:27:59;;;;;;;7.57;1.73;;;;;;;;;;6137685;23;20393;-91
2022/07/03 17:30:28;;;;;;;9.63;2.30;;;;;;;;;;6112164;23;20938;-91
2022/07/03 17:32:56;;;;;;;11.30;2.40;;;;;;;;;;6135074;23;20408;-91
2022/07/03 17:35:33;;;;;;;7.50;1.80;;;;;;;;;;6112540;23;20409;-92
2022/07/03 17:38:01;;;;;;;7.23;2.07;;;;;;;;;;6134886;23;20412;-91
2022/07/03 17:40:48;;;;;;;8.30;1.97;;;;;;;;;;6119469;23;20397;-91
2022/07/03 17:43:16;;;;;;;8.90;2.57;;;;;;;;;;6135062;23;20419;-91
2022/07/03 17:45:45;;;;;;;7.83;1.93;;;;;;;;;;6110875;23;20431;-91
2022/07/03 17:48:14;;;;;;;14.83;2.50;;;;;;;;;;6111728;23;20374;-92
2022/07/03 17:54:05;;;;;;;10.30;2.50;;;;;;;;;;6160689;23;20424;-92
2022/07/03 17:56:34;;;;;;;8.90;2.23;;;;;;;;;;6135981;23;20681;-92
2022/07/03 17:59:03;;;;;;;15.00;2.13;;;;;;;;;;6134279;23;20926;-92
2022/07/03 18:01:32;;;;;;;13.83;2.43;;;;;;;;;;6136005;23;20490;-93
2022/07/03 18:04:25;;;;;;;6.30;1.97;;;;;;;;;;6136341;23;20405;-91
2022/07/03 18:06:55;;;;;;;11.53;2.83;;;;;;;;;;6134501;23;20415;-93
2022/07/03 18:09:27;;;;;;;13.13;2.37;;;;;;;;;;6135265;23;20409;-93
2022/07/03 18:11:59;;;;;;;11.63;2.60;;;;;;;;;;6109381;23;20415;-92
2022/07/03 18:14:34;;;;;;;15.20;2.50;;;;;;;;;;6135303;23;20940;-93
2022/07/03 18:17:06;;;;;;;13.23;2.93;;;;;;;;;;6159268;23;20452;-92
2022/07/03 18:19:34;;;;;;;12.90;2.73;;;;;;;;;;6135315;23;20461;-92
2022/07/03 18:22:16;;;;;;;8.73;3.03;;;;;;;;;;6114130;23;20408;-91
2022/07/03 18:24:47;;;;;;;12.43;3.17;;;;;;;;;;6159930;23;20378;-91
2022/07/03 18:27:16;;;;;;;12.67;2.70;;;;;;;;;;6109348;23;20412;-90
2022/07/03 18:29:44;;;;;;;14.63;3.07;;;;;;;;;;6109334;23;20460;-91
2022/07/03 18:32:13;;;;;;;16.40;2.90;;;;;;;;;;6109622;23;20404;-91
2022/07/03 18:34:49;;;;;;;11.70;2.50;;;;;;;;;;6108672;23;20448;-92
2022/07/03 18:37:19;;;;;;;21.07;2.90;;;;;;;;;;6133209;23;20409;-91
2022/07/03 18:39:57;;;;;;;14.40;3.63;;;;;;;;;;6108855;23;20488;-90
2022/07/03 18:42:26;;;;;;;14.13;2.73;;;;;;;;;;6109358;23;20419;-92
2022/07/03 18:45:02;;;;;;;13.83;3.13;;;;;;;;;;6132840;23;20404;-91
2022/07/03 18:47:40;;;;;;;15.50;3.50;;;;;;;;;;6134033;23;20483;-91
2022/07/03 18:50:27;;;;;;;14.80;3.33;;;;;;;;;;6133367;23;20408;-91
2022/07/03 18:53:02;;;;;;;19.83;4.13;;;;;;;;;;6108712;23;20436;-92
2022/07/03 18:55:49;;;;;;;15.70;3.97;;;;;;;;;;6109438;23;20428;-92
2022/07/03 18:58:45;;;;;;;16.80;3.67;;;;;;;;;;6133966;23;20791;-91
2022/07/03 19:01:13;;;;;;;15.20;3.33;;;;;;;;;;6132943;23;20765;-91
2022/07/03 19:03:41;;;;;;;27.20;3.43;;;;;;;;;;6109958;23;20404;-91
2022/07/03 19:06:20;;;;;;;18.00;3.40;;;;;;;;;;6158961;23;20408;-92
2022/07/03 19:09:06;;;;;;;9.97;2.70;;;;;;;;;;6159985;23;20409;-92
2022/07/03 19:11:38;;;;;;;11.47;3.37;;;;;;;;;;6133656;23;20412;-91
2022/07/03 19:14:18;;;;;;;16.00;3.50;;;;;;;;;;6160315;23;20417;-90
2022/07/03 19:17:07;;;;;;;15.80;4.30;;;;;;;;;;6104256;23;20409;-93
2022/07/03 19:19:36;;;;;;;18.87;3.43;;;;;;;;;;6153589;23;20393;-91
2022/07/03 19:22:11;;;;;;;11.60;3.07;;;;;;;;;;6104457;23;20383;-92
2022/07/03 19:24:41;;;;;;;18.80;3.70;;;;;;;;;;6132611;23;20384;-92
2022/07/03 19:27:23;;;;;;;15.50;3.20;;;;;;;;;;6106651;23;20416;-92
2022/07/03 19:29:57;;;;;;;17.93;3.30;;;;;;;;;;6131861;23;20418;-93
2022/07/03 19:32:50;;;;;;;19.53;3.87;;;;;;;;;;6109257;23;20385;-92
2022/07/03 19:35:26;;;;;;;20.23;4.10;;;;;;;;;;6157079;23;20421;-92
2022/07/03 19:37:55;;;;;;;15.90;3.60;;;;;;;;;;6135887;23;20445;-91
2022/07/03 19:40:26;;;;;;;14.37;3.00;;;;;;;;;;6107381;23;20408;-95
2022/07/03 19:43:36;;;;;;;18.60;3.70;;;;;;;;;;6110954;23;20436;-95
2022/07/03 19:46:07;;;;;;;15.23;3.73;;;;;;;;;;6158751;23;20412;-91
2022/07/03 19:48:37;;;;;;;19.17;4.20;;;;;;;;;;6107725;23;20407;-91
2022/07/03 19:51:05;;;;;;;32.10;7.20;;;;;;;;;;6108429;23;20768;-91
2022/07/03 19:53:39;;;;;;;81.43;36.80;;;;;;;;;;6131415;23;20467;-90
2022/07/03 19:56:43;;;;;;;35.70;10.90;;;;;;;;;;6107623;23;20821;-90
2022/07/03 20:02:41;;;;;;;29.90;5.50;;;;;;;;;;6133746;23;20923;-94
2022/07/03 20:26:06;;;;;;;16.83;4.07;;;;;;;21.03;nan;101581.75;6127178;23;20416;-93
2022/07/03 20:28:35;;;;;;;17.40;4.30;;;;;;;20.91;nan;101572.59;5964673;23;20968;-93
2022/07/03 20:34:53;;;;;;;23.83;4.30;;;;;;;20.82;nan;101571.25;6015607;23;20493;-94
2022/07/03 20:38:14;;;;;;;15.03;4.00;;;;;;;20.93;nan;101592.66;5967279;23;20417;-93
2022/07/03 21:12:16;;;;;;;20.20;3.80;;;;;;;20.61;nan;101601.31;6151840;23;20498;-91
2022/07/03 21:30:14;;;;;;;24.20;4.93;;;;;;;20.37;nan;101610.72;6136918;23;20360;-93
2022/07/03 21:32:51;;;;;;;18.00;3.87;;;;;;;20.35;nan;101616.47;6103538;23;20441;-94
2022/07/03 21:39:36;;;;;;;18.00;3.60;;;;;;;20.42;nan;101635.81;6128909;23;20356;-96
2022/07/03 22:14:41;;;;;;;15.27;3.00;;;;;;;20.34;nan;101638.91;6161216;23;20616;-94
2022/07/03 22:17:58;;;;;;;17.03;3.40;;;;;;;20.31;nan;101633.81;6135511;23;20419;-94
2022/07/03 22:25:05;;;;;;;11.83;3.20;;;;;;;20.22;nan;101633.28;6176233;23;20388;-94
2022/07/03 22:39:25;;;;;;;10.53;2.53;;;;;;;20.18;nan;101636.81;6172721;23;20887;-94
2022/07/03 22:46:48;;;;;;;19.87;3.03;;;;;;;20.17;nan;101627.63;6159169;23;20461;-94
2022/07/03 22:50:03;;;;;;;15.43;3.77;;;;;;;19.95;nan;101607.88;6134155;23;20408;-92
2022/07/03 23:10:38;;;;;;;15.20;3.50;;;;;;;19.98;nan;101626.81;5910695;24;20932;-93